Time;durP1;ratioP1;P1;durP2;ratioP2;P2;SDS_P1;SDS_P2;PMS_P1;PMS_P2;Temp;Humidity;BMP_temperature;BMP_pressure;BME280_temperature;BME280_humidity;BME280_pressure;Samples;Min_cycle;Max_cycle;Signal;HPM_P1;HPM_P2
2023/09/28 00:01:17;;;;;;;7.20;5.70;;;15.80;1.00;;;;;;5032037;28;20459;-77
2023/09/28 00:03:43;;;;;;;6.50;5.50;;;15.80;1.00;;;;;;5048137;28;20409;-76
2023/09/28 00:06:09;;;;;;;6.23;5.30;;;15.80;1.00;;;;;;5032820;28;20515;-76
2023/09/28 00:08:34;;;;;;;8.30;6.33;;;15.80;1.00;;;;;;5032830;28;20272;-76
2023/09/28 00:11:00;;;;;;;7.57;5.97;;;15.80;1.00;;;;;;5032542;28;20210;-78
2023/09/28 00:13:25;;;;;;;6.50;5.83;;;15.70;1.00;;;;;;5032677;28;20195;-76
2023/09/28 00:15:51;;;;;;;6.40;5.53;;;15.60;1.00;;;;;;5032014;28;20182;-76
2023/09/28 00:18:17;;;;;;;7.87;5.80;;;15.60;1.00;;;;;;5032610;28;20216;-76
2023/09/28 00:20:43;;;;;;;8.53;6.10;;;15.50;1.00;;;;;;5047389;28;20651;-76
2023/09/28 00:23:08;;;;;;;7.23;6.20;;;15.50;1.00;;;;;;5032695;28;20174;-76
2023/09/28 00:25:34;;;;;;;7.87;5.87;;;15.60;1.00;;;;;;5031884;28;20181;-76
2023/09/28 00:28:00;;;;;;;6.40;5.70;;;15.60;1.00;;;;;;5031788;28;20194;-78
2023/09/28 00:30:26;;;;;;;8.23;6.00;;;15.70;1.00;;;;;;5032295;28;20583;-76
2023/09/28 00:32:57;;;;;;;7.87;6.37;;;15.70;1.00;;;;;;5032075;28;20277;-76
2023/09/28 00:35:24;;;;;;;6.47;5.80;;;15.60;1.00;;;;;;5032109;28;20469;-78
2023/09/28 00:37:49;;;;;;;8.53;6.30;;;15.60;1.00;;;;;;5032111;28;20771;-77
2023/09/28 00:40:19;;;;;;;9.00;6.53;;;15.60;1.00;;;;;;5032167;28;20428;-79
2023/09/28 00:42:46;;;;;;;9.13;5.83;;;15.60;1.00;;;;;;5031618;28;20205;-76
2023/09/28 00:45:12;;;;;;;8.33;6.43;;;15.50;1.00;;;;;;5032319;28;20429;-77
2023/09/28 00:47:39;;;;;;;11.33;6.23;;;15.60;1.00;;;;;;5030608;28;20452;-79
2023/09/28 00:50:10;;;;;;;6.30;5.70;;;15.60;1.00;;;;;;5023712;28;20476;-76
2023/09/28 00:52:40;;;;;;;6.73;5.90;;;15.60;1.00;;;;;;5031894;28;20440;-76
2023/09/28 00:55:08;;;;;;;6.47;5.83;;;15.60;1.00;;;;;;5032005;28;20421;-78
2023/09/28 00:57:35;;;;;;;7.30;5.63;;;15.60;1.00;;;;;;5031975;28;20435;-77
2023/09/28 01:00:08;;;;;;;10.37;5.90;;;15.70;1.00;;;;;;5031467;28;20772;-77
2023/09/28 01:02:33;;;;;;;8.87;6.40;;;15.70;1.00;;;;;;5031812;28;21001;-76
2023/09/28 01:04:59;;;;;;;7.23;5.93;;;15.70;1.00;;;;;;5031170;28;20417;-76
2023/09/28 01:07:30;;;;;;;8.27;5.87;;;15.70;1.00;;;;;;5031680;28;20196;-77
2023/09/28 01:09:55;;;;;;;8.23;7.00;;;15.70;1.00;;;;;;5046799;28;20561;-77
2023/09/28 01:12:21;;;;;;;9.53;5.97;;;15.60;1.00;;;;;;5030867;28;20448;-79
2023/09/28 01:14:49;;;;;;;7.50;5.87;;;15.70;1.00;;;;;;5031094;28;20189;-78
2023/09/28 01:17:16;;;;;;;6.43;5.73;;;15.70;1.00;;;;;;5031379;28;20184;-76
2023/09/28 01:19:42;;;;;;;12.10;6.43;;;15.80;1.00;;;;;;5031064;28;20503;-75
2023/09/28 01:22:13;;;;;;;7.73;6.30;;;15.80;1.00;;;;;;5031378;28;20482;-76
2023/09/28 01:24:39;;;;;;;7.67;6.20;;;15.90;1.00;;;;;;5031127;28;20417;-76
2023/09/28 01:27:06;;;;;;;9.40;6.13;;;15.90;1.00;;;;;;5030699;28;20474;-76
2023/09/28 01:29:32;;;;;;;9.47;6.33;;;15.90;1.00;;;;;;5031268;28;20269;-78
2023/09/28 01:31:57;;;;;;;8.80;6.50;;;15.80;1.00;;;;;;5030445;28;20558;-76
2023/09/28 01:34:23;;;;;;;9.23;6.30;;;15.90;1.00;;;;;;5030960;28;20281;-76
2023/09/28 01:36:48;;;;;;;7.50;6.20;;;15.90;1.00;;;;;;5030515;28;20221;-76
2023/09/28 01:39:15;;;;;;;8.10;6.70;;;15.90;1.00;;;;;;5031059;28;20592;-77
2023/09/28 01:41:40;;;;;;;9.33;6.10;;;16.00;1.00;;;;;;5030668;28;20210;-77
2023/09/28 01:44:06;;;;;;;6.83;6.13;;;16.00;1.00;;;;;;5030834;28;20523;-77
2023/09/28 01:46:31;;;;;;;7.27;6.30;;;16.00;1.00;;;;;;5030498;28;20267;-76
2023/09/28 01:48:57;;;;;;;10.43;6.63;;;16.00;1.00;;;;;;5030545;28;20660;-76
2023/09/28 01:51:22;;;;;;;10.83;6.77;;;16.00;1.00;;;;;;5030646;28;20209;-76
2023/09/28 01:53:48;;;;;;;11.17;6.93;;;16.10;1.00;;;;;;5030480;28;20189;-76
2023/09/28 01:56:14;;;;;;;8.03;6.70;;;16.10;1.00;;;;;;5030370;28;20213;-76
2023/09/28 01:58:39;;;;;;;8.40;6.23;;;16.10;1.00;;;;;;5030877;28;20456;-76
2023/09/28 02:01:05;;;;;;;7.00;5.83;;;16.20;1.00;;;;;;5029941;28;20218;-78
2023/09/28 02:03:30;;;;;;;7.90;6.57;;;16.10;1.00;;;;;;5030901;28;20268;-76
2023/09/28 02:05:56;;;;;;;8.63;6.07;;;16.10;1.00;;;;;;5030267;28;20198;-77
2023/09/28 02:08:21;;;;;;;7.50;5.87;;;16.00;1.00;;;;;;5030629;28;20392;-76
2023/09/28 02:10:47;;;;;;;10.37;7.00;;;16.00;1.00;;;;;;5029915;28;20241;-74
2023/09/28 02:13:12;;;;;;;6.80;6.10;;;16.00;1.00;;;;;;5030525;28;20189;-76
2023/09/28 02:15:42;;;;;;;9.53;7.07;;;16.00;1.00;;;;;;5030134;28;20186;-76
2023/09/28 02:18:07;;;;;;;12.30;7.03;;;15.90;1.00;;;;;;5029948;28;20181;-77
2023/09/28 02:20:34;;;;;;;9.63;6.97;;;16.00;1.00;;;;;;5030398;28;21026;-78
2023/09/28 02:23:00;;;;;;;9.00;6.57;;;16.00;1.00;;;;;;5029637;28;20232;-77
2023/09/28 02:25:29;;;;;;;11.10;6.53;;;16.00;1.00;;;;;;5029264;28;20421;-77
2023/09/28 02:27:54;;;;;;;9.40;6.53;;;16.10;1.00;;;;;;5044688;28;20228;-77
2023/09/28 02:30:22;;;;;;;9.83;6.90;;;16.10;1.00;;;;;;5030034;28;20495;-76
2023/09/28 02:32:53;;;;;;;13.13;7.60;;;16.10;1.00;;;;;;5029763;28;20201;-79
2023/09/28 02:35:19;;;;;;;15.90;7.13;;;16.10;1.00;;;;;;5029781;28;20425;-76
2023/09/28 02:37:48;;;;;;;9.60;6.50;;;16.10;1.00;;;;;;5030018;28;20424;-76
2023/09/28 02:40:14;;;;;;;8.53;6.70;;;16.10;1.00;;;;;;5022184;28;20268;-76
2023/09/28 02:42:42;;;;;;;7.07;6.30;;;16.20;1.00;;;;;;5029924;28;20833;-76
2023/09/28 02:45:11;;;;;;;8.60;6.60;;;16.10;1.00;;;;;;5029391;28;20439;-76
2023/09/28 02:47:44;;;;;;;8.53;6.90;;;16.20;1.00;;;;;;5029857;28;20428;-76
2023/09/28 02:50:11;;;;;;;11.60;7.53;;;16.10;1.00;;;;;;5029309;28;20506;-76
2023/09/28 02:52:41;;;;;;;14.13;7.73;;;16.20;1.00;;;;;;5029866;28;20444;-76
2023/09/28 02:55:08;;;;;;;10.20;7.03;;;16.30;1.00;;;;;;5029257;28;20425;-76
2023/09/28 02:57:34;;;;;;;7.73;6.93;;;16.30;1.00;;;;;;5029587;28;20429;-78
2023/09/28 03:00:01;;;;;;;8.67;7.20;;;16.30;1.00;;;;;;5027999;28;21004;-76
2023/09/28 03:02:26;;;;;;;8.73;7.10;;;16.40;1.00;;;;;;5029651;28;20440;-77
2023/09/28 03:04:52;;;;;;;7.70;6.90;;;16.40;1.00;;;;;;5029165;28;20783;-74
2023/09/28 03:07:17;;;;;;;13.00;7.67;;;16.50;1.00;;;;;;5029764;28;20512;-76
2023/09/28 03:09:43;;;;;;;12.43;7.60;;;16.50;1.00;;;;;;5029555;28;20284;-76
2023/09/28 03:12:08;;;;;;;9.30;6.90;;;16.40;1.00;;;;;;5029243;28;21394;-77
2023/09/28 03:14:34;;;;;;;8.40;7.17;;;16.50;1.00;;;;;;5036658;28;20177;-77
2023/09/28 03:16:59;;;;;;;8.77;6.87;;;16.50;1.00;;;;;;5029400;28;20177;-76
2023/09/28 03:19:25;;;;;;;10.60;7.33;;;16.60;1.00;;;;;;5029858;28;20185;-77
2023/09/28 03:21:51;;;;;;;8.70;7.10;;;16.60;1.00;;;;;;5029461;28;20213;-79
2023/09/28 03:24:16;;;;;;;8.27;7.13;;;16.60;1.00;;;;;;5029400;28;20193;-76
2023/09/28 03:26:42;;;;;;;8.97;7.50;;;16.60;1.00;;;;;;5028859;28;20600;-75
2023/09/28 03:29:08;;;;;;;9.57;7.27;;;16.70;1.00;;;;;;5029346;28;20181;-76
2023/09/28 03:31:34;;;;;;;8.47;6.97;;;16.70;1.00;;;;;;5029238;28;20248;-78
2023/09/28 03:33:59;;;;;;;9.33;7.10;;;16.70;1.00;;;;;;5029148;28;20185;-78
2023/09/28 03:36:25;;;;;;;11.20;7.23;;;16.80;1.00;;;;;;5032214;28;20474;-77
2023/09/28 03:38:51;;;;;;;9.30;7.70;;;16.70;1.00;;;;;;5032116;28;20231;-79
2023/09/28 03:41:17;;;;;;;10.13;7.27;;;16.70;1.00;;;;;;5032585;28;20205;-78
2023/09/28 03:43:44;;;;;;;12.10;7.90;;;16.80;1.00;;;;;;5033117;28;20451;-78
2023/09/28 03:46:10;;;;;;;8.40;7.17;;;16.90;1.00;;;;;;5032760;28;20428;-76
2023/09/28 03:48:35;;;;;;;8.10;7.30;;;17.00;1.00;;;;;;5033257;28;20856;-76
2023/09/28 03:51:01;;;;;;;9.53;7.73;;;17.00;1.00;;;;;;5032452;28;20502;-77
2023/09/28 03:53:27;;;;;;;12.13;7.30;;;17.00;1.00;;;;;;5033374;28;20178;-76
2023/09/28 03:55:53;;;;;;;9.10;8.10;;;17.10;1.00;;;;;;5032653;28;20607;-77
2023/09/28 03:58:18;;;;;;;12.00;8.70;;;17.10;1.00;;;;;;5032827;28;20602;-76
2023/09/28 04:00:44;;;;;;;8.93;7.50;;;17.10;1.00;;;;;;5032903;28;20186;-76
2023/09/28 04:03:11;;;;;;;9.27;7.60;;;17.10;1.00;;;;;;5032544;28;20235;-76
2023/09/28 04:05:37;;;;;;;9.00;7.60;;;17.20;1.00;;;;;;5048112;28;20182;-77
2023/09/28 04:08:03;;;;;;;11.50;8.00;;;17.20;1.00;;;;;;5032311;28;20435;-78
2023/09/28 04:10:28;;;;;;;9.53;7.63;;;17.20;1.00;;;;;;5032349;28;20236;-75
2023/09/28 04:12:54;;;;;;;15.37;8.13;;;17.20;1.00;;;;;;5032749;28;20265;-77
2023/09/28 04:15:19;;;;;;;13.50;8.17;;;17.20;1.00;;;;;;5032215;28;20235;-77
2023/09/28 04:17:45;;;;;;;11.33;7.73;;;17.20;1.00;;;;;;5032586;28;20277;-76
2023/09/28 04:20:11;;;;;;;11.33;7.90;;;17.30;1.00;;;;;;5032014;28;20189;-76
2023/09/28 04:22:37;;;;;;;11.23;8.10;;;17.20;1.00;;;;;;5032165;28;20674;-76
2023/09/28 04:25:03;;;;;;;9.67;7.70;;;17.20;1.00;;;;;;5030350;28;20522;-76
2023/09/28 04:27:29;;;;;;;9.80;7.80;;;17.20;1.00;;;;;;5032298;28;20320;-77
2023/09/28 04:29:55;;;;;;;11.00;8.10;;;17.20;1.00;;;;;;5032507;28;20523;-77
2023/09/28 04:32:20;;;;;;;10.83;7.40;;;17.10;1.00;;;;;;5032359;28;20487;-77
2023/09/28 04:34:46;;;;;;;9.17;7.30;;;17.20;1.00;;;;;;5032084;28;20181;-76
2023/09/28 04:37:12;;;;;;;8.07;7.27;;;17.10;1.00;;;;;;5032034;28;20190;-76
2023/09/28 04:39:37;;;;;;;8.17;7.10;;;17.10;1.00;;;;;;5047322;28;20178;-76
2023/09/28 04:42:03;;;;;;;10.23;6.90;;;17.10;1.00;;;;;;5031913;28;20210;-77
2023/09/28 04:44:29;;;;;;;9.57;7.03;;;17.00;1.00;;;;;;5031568;28;20182;-77
2023/09/28 04:46:55;;;;;;;9.40;7.17;;;17.10;1.00;;;;;;5030287;28;20446;-77
2023/09/28 04:49:21;;;;;;;9.07;6.30;;;17.10;1.00;;;;;;5031136;28;20192;-78
2023/09/28 04:51:47;;;;;;;8.87;6.90;;;17.10;1.00;;;;;;5031707;28;20211;-78
2023/09/28 04:54:14;;;;;;;7.87;5.93;;;17.10;1.00;;;;;;5030995;28;20491;-76
2023/09/28 04:56:40;;;;;;;7.50;6.60;;;17.00;1.00;;;;;;5031263;28;20722;-76
2023/09/28 04:59:06;;;;;;;7.73;6.40;;;17.00;1.00;;;;;;5031226;28;20424;-76
2023/09/28 05:01:32;;;;;;;8.33;6.53;;;17.00;1.00;;;;;;5046575;28;20456;-76
2023/09/28 05:03:59;;;;;;;7.53;6.73;;;17.00;1.00;;;;;;5031390;28;20552;-79
2023/09/28 05:06:24;;;;;;;11.63;6.80;;;17.00;1.00;;;;;;5030468;28;20639;-77
2023/09/28 05:08:50;;;;;;;9.87;6.60;;;17.00;1.00;;;;;;5031149;28;20605;-77
2023/09/28 05:11:15;;;;;;;13.10;7.10;;;17.00;1.00;;;;;;5030480;28;20212;-76
2023/09/28 05:13:42;;;;;;;8.57;6.20;;;17.00;1.00;;;;;;5031270;28;20192;-76
2023/09/28 05:16:07;;;;;;;9.17;6.53;;;17.00;1.00;;;;;;5030357;28;20656;-76
2023/09/28 05:18:35;;;;;;;11.50;6.87;;;17.00;1.00;;;;;;5030952;28;20428;-77
2023/09/28 05:21:00;;;;;;;6.90;5.83;;;17.00;1.00;;;;;;5029960;28;20290;-77
2023/09/28 05:23:26;;;;;;;10.50;6.67;;;17.00;1.00;;;;;;5030235;28;21045;-76
2023/09/28 05:25:51;;;;;;;11.43;6.60;;;16.90;1.00;;;;;;5030572;28;20193;-77
2023/09/28 05:28:17;;;;;;;9.40;6.90;;;16.90;1.00;;;;;;5030444;28;20197;-76
2023/09/28 05:30:43;;;;;;;8.13;6.13;;;16.90;1.00;;;;;;5030691;28;20205;-77
2023/09/28 05:33:08;;;;;;;8.53;6.93;;;16.90;1.00;;;;;;5030531;28;20188;-76
2023/09/28 05:35:34;;;;;;;9.07;6.60;;;16.90;1.00;;;;;;5030172;28;20608;-76
2023/09/28 05:37:59;;;;;;;10.30;6.43;;;16.90;1.00;;;;;;5030410;28;20178;-76
2023/09/28 05:40:25;;;;;;;7.87;6.50;;;16.90;1.00;;;;;;5030222;28;20247;-76
2023/09/28 05:42:51;;;;;;;7.90;5.97;;;16.90;1.00;;;;;;5030528;28;20209;-76
2023/09/28 05:45:16;;;;;;;7.83;6.13;;;16.90;1.00;;;;;;5030081;28;20429;-76
2023/09/28 05:47:42;;;;;;;9.80;6.67;;;17.10;1.00;;;;;;5030439;28;20205;-77
2023/09/28 05:50:08;;;;;;;9.00;6.63;;;19.00;1.00;;;;;;5029865;28;20679;-78
2023/09/28 05:52:33;;;;;;;9.87;6.90;;;17.00;1.00;;;;;;5030235;28;20758;-77
2023/09/28 05:54:59;;;;;;;9.57;6.90;;;17.00;1.00;;;;;;5030091;28;20181;-77
2023/09/28 05:57:24;;;;;;;9.10;6.53;;;17.00;1.00;;;;;;5029778;28;20268;-77
2023/09/28 05:59:50;;;;;;;10.43;7.57;;;17.10;1.00;;;;;;5030295;28;20189;-77
2023/09/28 06:02:18;;;;;;;10.73;7.50;;;17.20;1.00;;;;;;5029716;28;20296;-79
2023/09/28 06:04:44;;;;;;;8.93;6.80;;;17.10;1.00;;;;;;5029895;28;20194;-78
2023/09/28 06:07:10;;;;;;;12.20;7.00;;;17.20;1.00;;;;;;5029635;28;20965;-76
2023/09/28 06:09:40;;;;;;;8.70;6.70;;;17.30;1.00;;;;;;5030219;28;20177;-77
2023/09/28 06:12:06;;;;;;;9.10;7.03;;;17.20;1.00;;;;;;5029917;28;20206;-76
2023/09/28 06:14:32;;;;;;;8.37;7.03;;;17.30;1.00;;;;;;5029373;28;20991;-77
2023/09/28 06:16:57;;;;;;;8.00;7.20;;;17.30;1.00;;;;;;5028361;28;20718;-77
2023/09/28 06:19:23;;;;;;;18.40;7.20;;;17.40;1.00;;;;;;5029487;28;20265;-77
2023/09/28 06:21:48;;;;;;;9.27;6.60;;;17.50;1.00;;;;;;5029676;28;20209;-76
2023/09/28 06:24:14;;;;;;;11.65;6.90;;;17.60;1.00;;;;;;5028517;28;20413;-75
2023/09/28 06:26:40;;;;;;;9.03;6.93;;;17.80;1.00;;;;;;5029135;28;20373;-75
2023/09/28 06:29:06;;;;;;;8.83;7.20;;;17.90;1.00;;;;;;5029849;28;20189;-76
2023/09/28 06:31:31;;;;;;;10.30;6.97;;;17.90;1.00;;;;;;5029094;28;21059;-77
2023/09/28 06:33:57;;;;;;;8.40;6.63;;;17.90;1.00;;;;;;5029560;28;20429;-75
2023/09/28 06:36:25;;;;;;;9.03;6.93;;;17.90;1.00;;;;;;5028721;28;20186;-75
2023/09/28 06:38:51;;;;;;;9.23;6.83;;;17.90;1.00;;;;;;5029794;28;20181;-75
2023/09/28 06:41:17;;;;;;;8.57;7.30;;;17.90;1.00;;;;;;5028980;28;20456;-75
2023/09/28 06:43:42;;;;;;;8.70;7.23;;;18.10;1.00;;;;;;5045220;28;20181;-76
2023/09/28 06:46:08;;;;;;;9.63;7.40;;;17.90;1.00;;;;;;5029225;28;20185;-75
2023/09/28 06:48:34;;;;;;;11.40;7.50;;;17.90;1.00;;;;;;5028912;28;20667;-75
2023/09/28 06:51:00;;;;;;;8.73;7.53;;;17.80;1.00;;;;;;5028989;28;20221;-72
2023/09/28 06:53:26;;;;;;;8.50;7.13;;;17.80;1.00;;;;;;5029092;28;20549;-76
2023/09/28 06:55:53;;;;;;;8.23;6.70;;;17.90;1.00;;;;;;5029202;28;20181;-75
2023/09/28 06:58:19;;;;;;;10.53;6.93;;;18.10;1.00;;;;;;5028906;28;20423;-75
2023/09/28 07:00:45;;;;;;;12.93;7.10;;;18.30;1.00;;;;;;5029131;28;20447;-75
2023/09/28 07:03:11;;;;;;;17.77;7.50;;;18.30;1.00;;;;;;5029148;28;20462;-76
2023/09/28 07:05:38;;;;;;;10.93;7.47;;;18.30;1.00;;;;;;5028632;28;20466;-77
2023/09/28 07:08:05;;;;;;;9.17;6.80;;;18.40;1.00;;;;;;5029219;28;20840;-75
2023/09/28 07:10:39;;;;;;;11.83;6.60;;;18.60;1.00;;;;;;5030551;28;20460;-75
2023/09/28 07:13:06;;;;;;;8.53;6.30;;;18.60;1.00;;;;;;5033454;28;20443;-75
2023/09/28 07:15:33;;;;;;;8.50;6.90;;;18.70;1.00;;;;;;5032630;28;20989;-75
2023/09/28 07:17:59;;;;;;;8.30;6.80;;;18.80;1.00;;;;;;5033339;28;20447;-75
2023/09/28 07:20:26;;;;;;;11.10;6.43;;;18.80;1.00;;;;;;5032703;28;20785;-75
2023/09/28 07:22:52;;;;;;;9.53;6.40;;;18.90;1.00;;;;;;5033160;28;20452;-75
2023/09/28 07:25:17;;;;;;;8.33;6.37;;;19.00;1.00;;;;;;5032515;28;20478;-75
2023/09/28 07:27:44;;;;;;;8.27;6.43;;;19.00;1.00;;;;;;5033377;28;20424;-75
2023/09/28 07:30:11;;;;;;;9.97;6.77;;;19.10;1.00;;;;;;5032885;28;20196;-75
2023/09/28 07:32:37;;;;;;;12.00;6.50;;;19.10;1.00;;;;;;5032494;28;20450;-76
2023/09/28 07:35:03;;;;;;;10.47;6.47;;;19.20;1.00;;;;;;5032419;28;20428;-75
2023/09/28 07:37:29;;;;;;;11.27;6.00;;;19.30;1.00;;;;;;5032426;28;20954;-74
2023/09/28 07:39:55;;;;;;;11.80;7.20;;;19.40;1.00;;;;;;5032986;28;20428;-75
2023/09/28 07:42:21;;;;;;;8.50;6.40;;;19.50;1.00;;;;;;5031027;28;20233;-73
2023/09/28 07:44:49;;;;;;;10.43;6.20;;;19.50;1.00;;;;;;5032514;28;20356;-75
2023/09/28 07:47:15;;;;;;;14.23;6.80;;;19.60;1.00;;;;;;5032846;28;20182;-75
2023/09/28 07:49:41;;;;;;;12.20;7.30;;;19.70;1.00;;;;;;5031872;28;20431;-75
2023/09/28 07:52:09;;;;;;;7.67;6.50;;;19.80;1.00;;;;;;5032580;28;20214;-75
2023/09/28 07:54:36;;;;;;;8.93;6.93;;;19.90;1.00;;;;;;5031053;28;20611;-75
2023/09/28 07:57:04;;;;;;;9.57;6.80;;;20.00;1.00;;;;;;5031066;28;20795;-74
2023/09/28 07:59:34;;;;;;;7.90;6.17;;;20.20;1.00;;;;;;5032198;28;20665;-75
2023/09/28 08:02:00;;;;;;;8.90;6.50;;;20.50;1.00;;;;;;5032423;28;20534;-77
2023/09/28 08:04:26;;;;;;;7.30;5.90;;;20.30;1.00;;;;;;5032267;28;20440;-76
2023/09/28 08:06:52;;;;;;;10.47;6.30;;;20.40;1.00;;;;;;5032168;28;20428;-77
2023/09/28 08:09:19;;;;;;;8.73;6.07;;;20.50;1.00;;;;;;5032369;28;20852;-77
2023/09/28 08:11:47;;;;;;;9.93;6.60;;;20.60;1.00;;;;;;5027378;28;20464;-74
2023/09/28 08:14:15;;;;;;;8.23;6.00;;;20.70;1.00;;;;;;5027805;28;20435;-74
2023/09/28 08:16:47;;;;;;;9.53;7.03;;;20.70;1.00;;;;;;5031153;28;20909;-74
2023/09/28 08:19:13;;;;;;;11.73;7.03;;;20.80;1.00;;;;;;5032253;28;20494;-75
2023/09/28 08:21:40;;;;;;;12.20;6.03;;;20.80;1.00;;;;;;5030901;28;20448;-76
2023/09/28 08:24:07;;;;;;;8.10;6.13;;;21.60;1.00;;;;;;5032233;28;20181;-75
2023/09/28 08:26:33;;;;;;;16.07;6.13;;;23.10;1.00;;;;;;5030941;28;20435;-78
2023/09/28 08:29:00;;;;;;;10.10;6.30;;;24.80;1.00;;;;;;5032009;28;20459;-75
2023/09/28 08:31:25;;;;;;;8.67;5.97;;;26.00;1.00;;;;;;5031168;28;20470;-75
2023/09/28 08:33:52;;;;;;;9.73;6.07;;;27.20;1.00;;;;;;5032014;28;20533;-77
2023/09/28 08:36:17;;;;;;;12.73;5.38;;;28.00;1.00;;;;;;5030768;28;20265;-77
2023/09/28 08:38:44;;;;;;;7.47;5.85;;;28.70;1.00;;;;;;5031441;28;20268;-75
2023/09/28 08:41:11;;;;;;;7.05;5.72;;;29.20;1.00;;;;;;5046566;28;20292;-75
2023/09/28 08:43:42;;;;;;;10.13;6.10;;;28.90;1.00;;;;;;5031500;28;20177;-76
2023/09/28 08:46:11;;;;;;;8.52;5.72;;;29.00;1.00;;;;;;5031264;28;20268;-75
2023/09/28 08:48:43;;;;;;;7.78;5.65;;;29.10;1.00;;;;;;5031193;28;20189;-76
2023/09/28 08:51:10;;;;;;;9.43;5.57;;;29.00;1.00;;;;;;5029836;28;20209;-76
2023/09/28 08:53:38;;;;;;;6.07;5.07;;;29.40;1.00;;;;;;5030971;28;20655;-75
2023/09/28 08:56:04;;;;;;;7.55;5.22;;;30.50;1.00;;;;;;5031171;28;20285;-75
2023/09/28 08:58:36;;;;;;;6.65;5.50;;;31.40;1.00;;;;;;5030998;28;20193;-76
2023/09/28 09:01:03;;;;;;;8.45;5.93;;;31.30;1.00;;;;;;5031140;28;20204;-75
2023/09/28 09:03:31;;;;;;;7.70;6.00;;;31.00;1.00;;;;;;5029573;28;20193;-76
2023/09/28 09:05:58;;;;;;;7.30;5.15;;;31.20;1.00;;;;;;5031014;28;20189;-76
2023/09/28 09:08:26;;;;;;;8.98;5.50;;;30.70;1.00;;;;;;5031479;28;20189;-75
2023/09/28 09:10:52;;;;;;;7.68;5.30;;;31.10;1.00;;;;;;5022974;28;20232;-76
2023/09/28 09:13:19;;;;;;;11.48;5.05;;;31.50;1.00;;;;;;5031212;28;20188;-76
2023/09/28 09:15:45;;;;;;;9.18;5.57;;;31.90;1.00;;;;;;5030331;28;21577;-76
2023/09/28 09:18:20;;;;;;;9.32;5.72;;;32.30;1.00;;;;;;5031025;28;20280;-76
2023/09/28 09:20:47;;;;;;;6.47;5.03;;;32.90;1.00;;;;;;5028780;28;20263;-75
2023/09/28 09:23:16;;;;;;;6.55;5.47;;;32.90;1.00;;;;;;5031025;28;20185;-76
2023/09/28 09:25:44;;;;;;;11.98;5.18;;;33.00;1.00;;;;;;5030179;28;20208;-75
2023/09/28 09:28:12;;;;;;;7.25;5.18;;;33.30;1.00;;;;;;5030993;28;20185;-76
2023/09/28 09:30:37;;;;;;;9.85;5.25;;;33.80;1.00;;;;;;5030524;28;20216;-75
2023/09/28 09:33:06;;;;;;;9.07;5.07;;;33.80;1.00;;;;;;5030377;28;20547;-76
2023/09/28 09:35:33;;;;;;;7.93;5.20;;;33.40;1.00;;;;;;5030007;28;20250;-76
2023/09/28 09:37:59;;;;;;;8.13;4.93;;;33.40;1.00;;;;;;5030706;28;20170;-76
2023/09/28 09:40:25;;;;;;;6.00;4.50;;;34.20;1.00;;;;;;5030690;28;20178;-76
2023/09/28 09:42:51;;;;;;;7.32;4.72;;;34.90;1.00;;;;;;5030027;28;20207;-78
2023/09/28 09:45:19;;;;;;;6.53;4.70;;;35.20;1.00;;;;;;5030356;28;20178;-75
2023/09/28 09:47:47;;;;;;;5.95;4.40;;;35.60;1.00;;;;;;5029921;28;20189;-77
2023/09/28 09:50:14;;;;;;;7.78;4.40;;;36.60;1.00;;;;;;5030454;28;20177;-76
2023/09/28 09:52:42;;;;;;;7.43;4.93;;;37.30;1.00;;;;;;5030024;28;20201;-76
2023/09/28 09:55:08;;;;;;;8.40;5.50;;;36.60;1.00;;;;;;5029827;28;20232;-76
2023/09/28 09:57:37;;;;;;;8.02;4.45;;;36.50;1.00;;;;;;5029843;28;20180;-76
2023/09/28 10:00:07;;;;;;;7.93;4.47;;;36.90;1.00;;;;;;5028761;28;20174;-75
2023/09/28 10:02:39;;;;;;;8.75;4.80;;;37.20;1.00;;;;;;5029449;28;20208;-77
2023/09/28 10:05:13;;;;;;;9.35;4.93;;;36.90;1.00;;;;;;5030445;28;20615;-77
2023/09/28 10:07:41;;;;;;;7.30;4.43;;;37.20;1.00;;;;;;5029838;28;20181;-76
2023/09/28 10:10:07;;;;;;;7.85;4.47;;;37.30;1.00;;;;;;5030091;28;20560;-76
2023/09/28 10:12:33;;;;;;;8.90;4.68;;;36.90;1.00;;;;;;5030166;28;20193;-76
2023/09/28 10:14:59;;;;;;;5.47;4.65;;;37.10;1.00;;;;;;5029155;28;20367;-76
2023/09/28 10:17:28;;;;;;;5.85;4.30;;;37.10;1.00;;;;;;5029855;28;20177;-76
2023/09/28 10:19:59;;;;;;;6.53;4.30;;;37.20;1.00;;;;;;5029482;28;20200;-78
2023/09/28 10:22:25;;;;;;;5.80;4.60;;;37.60;1.00;;;;;;5029878;28;20227;-76
2023/09/28 10:24:51;;;;;;;7.68;4.40;;;38.20;1.00;;;;;;5029468;28;20197;-76
2023/09/28 10:27:17;;;;;;;5.63;4.55;;;38.20;1.00;;;;;;5029368;28;20228;-77
2023/09/28 10:29:42;;;;;;;7.80;5.03;;;38.30;1.00;;;;;;5029203;28;20185;-76
2023/09/28 10:32:28;;;;;;;5.60;4.32;;;38.10;1.00;;;;;;5028031;28;20502;-76
2023/09/28 10:35:26;;;;;;;6.70;4.45;;;37.90;1.00;;;;;;5028848;28;20219;-77
2023/09/28 10:38:16;;;;;;;6.45;4.60;;;37.30;1.00;;;;;;5029047;28;23248;-76
2023/09/28 10:40:43;;;;;;;9.20;4.97;;;35.60;1.00;;;;;;5029032;28;20235;-75
2023/09/28 10:43:13;;;;;;;8.57;5.13;;;35.90;1.00;;;;;;5029778;28;20186;-76
2023/09/28 10:45:39;;;;;;;6.25;4.43;;;36.50;1.00;;;;;;5028720;28;20181;-76
2023/09/28 10:48:05;;;;;;;5.70;4.60;;;38.10;1.00;;;;;;5029828;28;20671;-77
2023/09/28 10:50:31;;;;;;;6.13;4.22;;;39.20;1.00;;;;;;5029581;28;20208;-76
2023/09/28 10:52:56;;;;;;;9.32;4.78;;;39.20;1.00;;;;;;5029582;28;20200;-76
2023/09/28 10:55:22;;;;;;;6.15;4.50;;;39.70;1.00;;;;;;5029802;28;20173;-76
2023/09/28 10:57:47;;;;;;;10.00;4.57;;;40.70;1.00;;;;;;5027985;28;20180;-76
2023/09/28 11:00:13;;;;;;;5.30;3.97;;;40.90;1.00;;;;;;5029739;28;20174;-76
2023/09/28 11:02:40;;;;;;;8.48;4.13;;;41.10;1.00;;;;;;5027927;28;20201;-76
2023/09/28 11:05:07;;;;;;;7.22;3.50;;;40.90;1.00;;;;;;5029800;28;20192;-76
2023/09/28 11:07:33;;;;;;;5.60;3.92;;;41.10;1.00;;;;;;5029827;28;20628;-76
2023/09/28 11:09:58;;;;;;;10.20;4.22;;;41.10;1.00;;;;;;5029150;28;20220;-76
2023/09/28 11:12:28;;;;;;;10.02;3.90;;;41.30;1.00;;;;;;5029612;28;20208;-76
2023/09/28 11:14:57;;;;;;;8.73;4.15;;;41.20;1.00;;;;;;5029087;28;20719;-76
2023/09/28 11:17:24;;;;;;;6.03;3.72;;;40.80;1.00;;;;;;5029290;28;20596;-76
2023/09/28 11:19:50;;;;;;;6.40;3.63;;;40.90;1.00;;;;;;5029171;28;20174;-75
2023/09/28 11:22:17;;;;;;;10.23;4.50;;;40.90;1.00;;;;;;5029604;28;20296;-77
2023/09/28 11:24:42;;;;;;;6.30;3.65;;;40.10;1.00;;;;;;5028940;28;20185;-78
2023/09/28 11:27:08;;;;;;;5.65;4.18;;;40.50;1.00;;;;;;5029598;28;20203;-76
2023/09/28 11:29:34;;;;;;;8.32;3.92;;;41.40;1.00;;;;;;5029695;28;20189;-77
2023/09/28 11:32:00;;;;;;;7.75;3.85;;;40.80;1.00;;;;;;5028854;28;20211;-76
2023/09/28 11:34:30;;;;;;;7.05;4.00;;;40.20;1.00;;;;;;5029531;28;20607;-76
2023/09/28 11:36:57;;;;;;;5.30;3.72;;;39.80;1.00;;;;;;5028520;28;20208;-75
2023/09/28 11:39:25;;;;;;;6.90;4.53;;;39.90;1.00;;;;;;5029406;28;20615;-76
2023/09/28 11:41:57;;;;;;;5.50;3.80;;;40.60;1.00;;;;;;5028746;28;20201;-77
2023/09/28 11:44:28;;;;;;;6.65;4.32;;;41.00;1.00;;;;;;5029743;28;20651;-75
2023/09/28 11:46:54;;;;;;;6.18;4.35;;;42.10;1.00;;;;;;5029056;28;20189;-76
2023/09/28 11:49:21;;;;;;;6.20;4.15;;;42.70;1.00;;;;;;5029019;28;20186;-76
2023/09/28 11:51:47;;;;;;;7.05;4.38;;;42.40;1.00;;;;;;5028658;28;20244;-76
2023/09/28 11:54:16;;;;;;;6.45;4.35;;;43.10;1.00;;;;;;5044611;28;20596;-77
2023/09/28 11:56:45;;;;;;;6.55;3.90;;;43.80;1.00;;;;;;5030426;28;20260;-75
2023/09/28 11:59:20;;;;;;;4.82;3.88;;;43.90;1.00;;;;;;5033343;28;20669;-76
2023/09/28 12:01:46;;;;;;;7.57;3.97;;;43.60;1.00;;;;;;5032402;28;20270;-77
2023/09/28 12:04:13;;;;;;;7.45;4.13;;;43.30;1.00;;;;;;5032892;28;20185;-76
2023/09/28 12:06:39;;;;;;;6.88;4.25;;;43.00;1.00;;;;;;5032502;28;20177;-74
2023/09/28 12:09:06;;;;;;;6.55;4.20;;;42.30;1.00;;;;;;5032792;28;20181;-77
2023/09/28 12:11:33;;;;;;;4.60;3.58;;;42.10;1.00;;;;;;5032135;28;20713;-76
2023/09/28 12:13:59;;;;;;;5.35;4.15;;;41.80;1.00;;;;;;5032438;28;20185;-76
2023/09/28 12:16:26;;;;;;;8.57;4.45;;;42.00;1.00;;;;;;5032180;28;20602;-76
2023/09/28 12:18:51;;;;;;;6.00;3.92;;;41.80;1.00;;;;;;5032271;28;20178;-76
2023/09/28 12:21:17;;;;;;;6.53;3.65;;;40.80;1.00;;;;;;5031980;28;20571;-76
2023/09/28 12:23:42;;;;;;;6.32;4.13;;;40.30;1.00;;;;;;5032581;28;20532;-74
2023/09/28 12:26:09;;;;;;;6.32;4.50;;;38.60;1.00;;;;;;5030577;28;20184;-78
2023/09/28 12:28:36;;;;;;;6.63;4.57;;;38.50;1.00;;;;;;5032438;28;20644;-75
2023/09/28 12:31:03;;;;;;;13.38;4.63;;;38.20;1.00;;;;;;5031603;28;20213;-76
2023/09/28 12:33:29;;;;;;;8.32;4.30;;;39.50;1.00;;;;;;5032676;28;20174;-76
2023/09/28 12:35:56;;;;;;;7.40;4.03;;;38.30;1.00;;;;;;5031238;28;20184;-76
2023/09/28 12:38:22;;;;;;;5.28;4.18;;;39.10;1.00;;;;;;5031748;28;20184;-76
2023/09/28 12:40:48;;;;;;;7.18;4.38;;;40.40;1.00;;;;;;5031268;28;20189;-76
2023/09/28 12:43:13;;;;;;;7.03;4.22;;;40.50;1.00;;;;;;5032287;28;20184;-76
2023/09/28 12:45:39;;;;;;;8.68;4.60;;;40.30;1.00;;;;;;5031921;28;20188;-77
2023/09/28 12:48:05;;;;;;;7.15;4.03;;;39.70;1.00;;;;;;5031534;28;20185;-76
2023/09/28 12:50:32;;;;;;;10.15;4.15;;;39.10;1.00;;;;;;5031686;28;20205;-77
2023/09/28 12:52:58;;;;;;;5.22;3.97;;;39.10;1.00;;;;;;5031595;28;20678;-76